createdAt,value
2018-06-28T00:00:05.788Z,3.87
2018-06-28T00:02:40.125Z,3.90
2018-06-28T00:05:08.320Z,3.77
2018-06-28T00:07:43.630Z,3.43
2018-06-28T00:10:15.237Z,3.70
2018-06-28T00:12:45.083Z,3.10
2018-06-28T00:15:13.605Z,3.30
2018-06-28T00:17:46.753Z,3.63
2018-06-28T00:20:15.474Z,3.80
2018-06-28T00:22:48.538Z,3.40
2018-06-28T00:25:17.381Z,3.70
2018-06-28T00:30:18.490Z,3.20
2018-06-28T00:32:46.947Z,3.37
2018-06-28T00:35:15.959Z,2.90
2018-06-28T00:37:44.461Z,3.00
2018-06-28T00:40:14.123Z,3.37
2018-06-28T00:42:42.352Z,3.60
2018-06-28T00:45:10.588Z,3.00
2018-06-28T00:47:40.441Z,3.43
2018-06-28T00:50:08.989Z,3.67
2018-06-28T00:52:37.744Z,3.47
2018-06-28T00:55:08.485Z,3.83
2018-06-28T00:57:37.748Z,3.40
2018-06-28T01:00:11.180Z,3.80
2018-06-28T01:02:40.849Z,4.43
2018-06-28T01:05:15.080Z,4.10
2018-06-28T01:07:43.589Z,4.13
2018-06-28T01:10:18.306Z,4.50
2018-06-28T01:12:46.846Z,4.23
2018-06-28T01:15:18.128Z,4.20
2018-06-28T01:17:46.901Z,4.70
2018-06-28T01:20:19.876Z,4.90
2018-06-28T01:22:48.413Z,4.37
2018-06-28T01:25:21.393Z,5.00
2018-06-28T01:27:49.556Z,5.00
2018-06-28T01:32:52.245Z,4.30
2018-06-28T01:35:25.556Z,4.43
2018-06-28T01:37:53.763Z,4.10
2018-06-28T01:43:09.653Z,4.30
2018-06-28T01:45:38.740Z,4.93
2018-06-28T01:48:07.224Z,4.43
2018-06-28T01:50:35.729Z,4.13
2018-06-28T01:53:04.894Z,5.13
2018-06-28T01:55:46.090Z,4.50
2018-06-28T01:58:14.913Z,3.67
2018-06-28T02:00:43.562Z,4.33
2018-06-28T02:03:12.073Z,4.60
2018-06-28T02:08:18.868Z,4.50
2018-06-28T02:10:47.461Z,4.07
2018-06-28T02:13:16.638Z,4.70
2018-06-28T02:15:48.821Z,5.00
2018-06-28T02:18:17.061Z,3.63
2018-06-28T02:20:50.535Z,4.57
2018-06-28T02:23:19.166Z,4.10
2018-06-28T02:26:00.572Z,4.37
2018-06-28T02:28:29.099Z,4.47
2018-06-28T02:30:57.902Z,3.90
2018-06-28T02:33:26.111Z,4.13
2018-06-28T02:35:57.789Z,4.13
2018-06-28T02:38:26.773Z,3.83
2018-06-28T02:41:00.695Z,5.00
2018-06-28T02:43:30.821Z,5.70
2018-06-28T02:46:11.921Z,5.03
2018-06-28T02:48:40.464Z,3.93
2018-06-28T02:51:08.992Z,4.40
2018-06-28T02:53:37.236Z,5.10
2018-06-28T02:56:11.621Z,5.30
2018-06-28T02:58:40.094Z,4.83
2018-06-28T03:01:20.801Z,4.80
2018-06-28T03:03:49.789Z,4.77
2018-06-28T03:06:18.009Z,4.87
2018-06-28T03:08:47.309Z,5.23
2018-06-28T03:11:16.325Z,5.80
2018-06-28T03:13:44.870Z,4.90
2018-06-28T03:16:17.734Z,5.37
2018-06-28T03:18:46.240Z,4.73
2018-06-28T03:21:15.471Z,5.43
2018-06-28T03:23:47.381Z,4.20
2018-06-28T03:26:16.192Z,4.20
2018-06-28T03:28:44.661Z,4.97
2018-06-28T03:31:12.880Z,4.60
2018-06-28T03:33:41.672Z,4.63
2018-06-28T03:36:10.110Z,5.83
2018-06-28T03:38:38.304Z,4.70
2018-06-28T03:41:07.105Z,4.10
2018-06-28T03:43:35.341Z,4.53
2018-06-28T03:46:04.481Z,4.57
2018-06-28T03:48:34.941Z,4.50
2018-06-28T03:51:04.490Z,4.60
2018-06-28T03:53:45.741Z,4.63
2018-06-28T03:56:14.529Z,4.27
2018-06-28T03:58:43.050Z,4.10
2018-06-28T04:01:11.545Z,4.97
2018-06-28T04:03:41.556Z,5.40
2018-06-28T04:06:09.756Z,5.77
2018-06-28T04:08:45.156Z,5.40
2018-06-28T04:11:13.986Z,5.53
2018-06-28T04:13:46.697Z,5.50
2018-06-28T04:16:15.218Z,5.23
2018-06-28T04:18:49.153Z,5.73
2018-06-28T04:21:17.767Z,5.70
2018-06-28T04:23:50.572Z,6.37
2018-06-28T04:26:19.099Z,6.20
2018-06-28T04:28:47.711Z,6.33
2018-06-28T04:31:16.551Z,6.33
2018-06-28T04:33:45.316Z,6.37
2018-06-28T04:36:13.848Z,6.63
2018-06-28T04:38:42.410Z,6.73
2018-06-28T04:41:10.896Z,7.13
2018-06-28T04:43:39.409Z,7.00
2018-06-28T04:46:07.706Z,7.07
2018-06-28T04:48:36.671Z,7.07
2018-06-28T04:51:08.427Z,6.90
2018-06-28T04:53:36.674Z,7.03
2018-06-28T04:56:09.943Z,5.73
2018-06-28T04:58:38.588Z,6.27
2018-06-28T05:01:11.442Z,7.00
2018-06-28T05:03:40.301Z,7.63
2018-06-28T05:06:15.269Z,5.80
2018-06-28T05:08:43.485Z,6.30
2018-06-28T05:11:16.204Z,6.13
2018-06-28T05:13:45.873Z,6.10
2018-06-28T05:16:19.668Z,7.00
2018-06-28T05:18:47.880Z,6.80
2018-06-28T05:21:23.598Z,6.40
2018-06-28T05:23:52.659Z,7.20
2018-06-28T05:26:25.014Z,6.87
2018-06-28T05:28:53.580Z,7.40
2018-06-28T05:31:26.702Z,7.03
2018-06-28T05:33:55.873Z,6.93
2018-06-28T05:36:31.036Z,6.80
2018-06-28T05:39:00.188Z,6.83
2018-06-28T05:41:32.085Z,6.50
2018-06-28T05:44:00.609Z,6.97
2018-06-28T05:46:41.894Z,6.27
2018-06-28T05:49:10.981Z,5.50
2018-06-28T05:51:39.301Z,5.60
2018-06-28T05:54:08.193Z,5.35
2018-06-28T05:56:39.794Z,4.87
2018-06-28T05:59:08.032Z,4.40
2018-06-28T06:01:49.826Z,5.05
2018-06-28T06:04:18.605Z,3.00
2018-06-28T06:06:47.123Z,3.17
2018-06-28T06:09:15.319Z,3.33
2018-06-28T06:11:46.902Z,3.80
2018-06-28T06:14:16.120Z,3.83
2018-06-28T06:16:48.732Z,3.85
2018-06-28T06:19:17.453Z,3.35
2018-06-28T06:21:50.172Z,3.67
2018-06-28T06:24:19.139Z,4.40
2018-06-28T06:26:52.393Z,3.40
2018-06-28T06:29:21.272Z,3.45
2018-06-28T06:31:53.613Z,3.58
2018-06-28T06:34:22.270Z,3.50
2018-06-28T06:36:51.973Z,3.75
2018-06-28T06:39:24.614Z,3.25
2018-06-28T06:41:53.156Z,3.30
2018-06-28T06:44:22.801Z,3.30
2018-06-28T06:46:51.688Z,3.50
2018-06-28T06:49:20.918Z,3.62
2018-06-28T06:51:51.957Z,3.30
2018-06-28T06:54:20.577Z,3.77
2018-06-28T06:56:50.209Z,3.02
2018-06-28T06:59:20.169Z,3.10
2018-06-28T07:01:48.575Z,3.12
2018-06-28T07:04:17.206Z,2.83
2018-06-28T07:06:46.046Z,3.40
2018-06-28T07:09:18.301Z,4.03
2018-06-28T07:11:47.700Z,3.87
2018-06-28T07:14:20.172Z,3.72
2018-06-28T07:16:49.028Z,3.30
2018-06-28T07:19:22.410Z,3.05
2018-06-28T07:21:50.889Z,2.87
2018-06-28T07:24:32.125Z,3.42
2018-06-28T07:27:02.353Z,2.83
2018-06-28T07:29:31.100Z,3.22
2018-06-28T07:31:59.652Z,3.67
2018-06-28T07:34:29.327Z,3.20
2018-06-28T07:36:57.857Z,2.85
2018-06-28T07:39:39.548Z,3.40
2018-06-28T07:42:08.088Z,3.25
2018-06-28T07:44:38.232Z,3.50
2018-06-28T07:47:06.685Z,3.40
2018-06-28T07:49:38.692Z,3.75
2018-06-28T07:52:09.712Z,4.00
2018-06-28T07:54:38.881Z,4.10
2018-06-28T07:57:08.837Z,3.90
2018-06-28T07:59:40.869Z,4.10
2018-06-28T08:02:09.558Z,4.35
2018-06-28T08:04:43.162Z,4.17
2018-06-28T08:07:11.375Z,4.00
2018-06-28T08:09:44.545Z,4.65
2018-06-28T08:12:12.784Z,4.65
2018-06-28T08:14:45.378Z,4.40
2018-06-28T08:17:14.653Z,4.08
2018-06-28T08:19:42.857Z,4.30
2018-06-28T08:22:11.380Z,3.52
2018-06-28T08:24:40.262Z,3.67
2018-06-28T08:27:08.816Z,3.17
2018-06-28T08:29:37.669Z,3.75
2018-06-28T08:32:06.883Z,3.33
2018-06-28T08:34:35.299Z,3.25
2018-06-28T08:37:05.874Z,3.37
2018-06-28T08:39:34.541Z,3.72
2018-06-28T08:42:05.041Z,3.55
2018-06-28T08:44:37.952Z,3.02
2018-06-28T08:47:06.180Z,3.00
2018-06-28T08:49:34.958Z,3.10
2018-06-28T08:52:09.165Z,2.83
2018-06-28T08:54:37.906Z,2.75
2018-06-28T08:57:11.055Z,3.60
2018-06-28T08:59:39.568Z,3.10
2018-06-28T09:02:12.469Z,3.02
2018-06-28T09:04:41.569Z,3.10
2018-06-28T09:07:14.722Z,2.77
2018-06-28T09:09:43.318Z,3.25
2018-06-28T09:12:20.905Z,3.27
2018-06-28T09:14:49.667Z,2.95
2018-06-28T09:17:22.543Z,3.25
2018-06-28T09:19:55.520Z,2.85
2018-06-28T09:22:25.602Z,2.70
2018-06-28T09:24:55.178Z,2.95
2018-06-28T09:27:28.616Z,2.95
2018-06-28T09:29:58.392Z,3.05
2018-06-28T09:32:28.509Z,2.90
2018-06-28T09:34:57.491Z,3.33
2018-06-28T09:37:30.568Z,3.30
2018-06-28T09:40:01.001Z,3.22
2018-06-28T09:42:33.167Z,3.02
2018-06-28T09:45:05.650Z,3.40
2018-06-28T09:47:34.836Z,2.85
2018-06-28T09:50:03.940Z,3.15
2018-06-28T09:52:39.532Z,2.52
2018-06-28T09:55:10.302Z,3.00
2018-06-28T09:57:39.959Z,3.30
2018-06-28T10:00:09.198Z,3.22
2018-06-28T10:02:42.064Z,3.52
2018-06-28T10:05:12.593Z,3.62
2018-06-28T10:07:54.825Z,3.05
2018-06-28T10:10:24.099Z,3.50
2018-06-28T10:12:53.150Z,3.47
2018-06-28T10:15:21.710Z,3.02
2018-06-28T10:17:49.987Z,3.30
2018-06-28T10:20:18.577Z,3.58
2018-06-28T10:22:52.208Z,3.58
2018-06-28T10:25:23.959Z,3.20
2018-06-28T10:27:57.712Z,3.00
2018-06-28T10:30:26.187Z,3.05
2018-06-28T10:33:00.564Z,3.20
2018-06-28T10:35:29.193Z,2.80
2018-06-28T10:38:02.363Z,3.50
2018-06-28T10:40:31.157Z,2.60
2018-06-28T10:43:12.177Z,2.62
2018-06-28T10:45:42.081Z,2.60
2018-06-28T10:48:10.272Z,2.47
2018-06-28T10:50:39.876Z,3.00
2018-06-28T10:53:10.835Z,2.80
2018-06-28T10:55:39.788Z,2.27
2018-06-28T10:58:15.568Z,2.50
2018-06-28T11:00:44.660Z,2.00
2018-06-28T11:03:17.205Z,2.50
2018-06-28T11:05:48.789Z,2.72
2018-06-28T11:08:18.684Z,2.90
2018-06-28T11:10:48.104Z,2.47
2018-06-28T11:13:21.164Z,2.75
2018-06-28T11:15:51.108Z,2.62
2018-06-28T11:18:33.293Z,2.58
2018-06-28T11:21:01.575Z,2.62
2018-06-28T11:23:31.111Z,3.10
2018-06-28T11:26:01.668Z,3.02
2018-06-28T11:28:41.156Z,3.62
2018-06-28T11:31:10.105Z,2.40
2018-06-28T11:33:38.885Z,2.60
2018-06-28T11:36:07.782Z,2.87
2018-06-28T11:38:37.114Z,2.75
2018-06-28T11:41:08.621Z,2.52
2018-06-28T11:43:36.838Z,3.15
2018-06-28T11:46:06.217Z,2.85
2018-06-28T11:48:36.214Z,3.00
2018-06-28T11:51:05.525Z,2.05
2018-06-28T11:53:40.116Z,2.60
2018-06-28T11:56:08.581Z,2.50
2018-06-28T11:58:49.456Z,2.87
2018-06-28T12:01:19.018Z,2.60
2018-06-28T12:03:47.596Z,2.83
2018-06-28T12:06:16.299Z,2.65
2018-06-28T12:08:46.112Z,3.05
2018-06-28T12:11:14.496Z,2.70
2018-06-28T12:13:51.409Z,3.02
2018-06-28T12:16:19.919Z,2.70
2018-06-28T12:19:00.880Z,2.95
2018-06-28T12:21:32.160Z,2.87
2018-06-28T12:24:05.494Z,2.95
2018-06-28T12:26:36.835Z,2.60
2018-06-28T12:29:06.013Z,2.58
2018-06-28T12:31:34.586Z,2.83
2018-06-28T12:34:03.295Z,2.60
2018-06-28T12:36:33.367Z,2.65
2018-06-28T12:39:03.877Z,3.10
2018-06-28T12:41:32.080Z,2.67
2018-06-28T12:44:05.625Z,2.80
2018-06-28T12:47:48.711Z,2.47
2018-06-28T12:50:17.596Z,2.75
2018-06-28T12:52:57.200Z,2.77
2018-06-28T12:55:26.365Z,2.98
2018-06-28T12:57:56.692Z,3.10
2018-06-28T13:00:25.277Z,2.77
2018-06-28T13:02:53.505Z,3.08
2018-06-28T13:05:22.000Z,2.67
2018-06-28T13:07:50.536Z,3.10
2018-06-28T13:10:20.138Z,2.83
2018-06-28T13:12:49.223Z,2.87
2018-06-28T13:15:21.304Z,2.77
2018-06-28T13:17:50.093Z,2.90
2018-06-28T13:20:31.951Z,2.80
2018-06-28T13:23:00.728Z,2.80
2018-06-28T13:25:31.728Z,2.65
2018-06-28T13:28:01.510Z,2.58
2018-06-28T13:30:30.188Z,2.62
2018-06-28T13:32:59.436Z,2.62
2018-06-28T13:35:31.273Z,2.83
2018-06-28T13:38:00.137Z,2.50
2018-06-28T13:40:42.247Z,2.65
2018-06-28T13:43:11.301Z,2.52
2018-06-28T13:45:40.381Z,2.60
2018-06-28T13:48:10.193Z,2.33
2018-06-28T13:50:40.309Z,2.50
2018-06-28T13:53:08.554Z,2.83
2018-06-28T13:55:50.191Z,3.02
2018-06-28T13:58:19.578Z,2.70
2018-06-28T14:00:49.673Z,2.50
2018-06-28T14:03:23.580Z,2.42
2018-06-28T14:05:54.640Z,2.62
2018-06-28T14:08:24.677Z,2.65
2018-06-28T14:10:56.365Z,2.30
2018-06-28T14:13:30.168Z,2.65
2018-06-28T14:16:00.676Z,2.98
2018-06-28T14:18:29.919Z,2.70
2018-06-28T14:21:06.333Z,2.47
2018-06-28T14:23:34.592Z,2.77
2018-06-28T14:26:06.261Z,2.75
2018-06-28T14:28:37.162Z,2.30
2018-06-28T14:33:30.775Z,2.60
2018-06-28T14:36:03.083Z,2.80
2018-06-28T14:38:32.333Z,2.65
2018-06-28T14:41:13.669Z,2.50
2018-06-28T14:43:42.579Z,2.87
2018-06-28T14:46:13.867Z,2.62
2018-06-28T14:48:42.104Z,2.50
2018-06-28T14:51:12.642Z,2.52
2018-06-28T14:53:41.220Z,2.37
2018-06-28T14:56:22.691Z,2.62
2018-06-28T14:58:51.693Z,2.52
2018-06-28T15:01:21.185Z,2.80
2018-06-28T15:03:49.414Z,3.00
2018-06-28T15:06:24.451Z,2.83
2018-06-28T15:08:53.142Z,3.05
2018-06-28T15:11:22.104Z,2.50
2018-06-28T15:13:50.560Z,3.02
2018-06-28T15:16:32.113Z,2.55
2018-06-28T15:19:00.560Z,3.20
2018-06-28T15:21:30.138Z,2.70
2018-06-28T15:24:00.157Z,3.30
2018-06-28T15:26:29.222Z,2.50
2018-06-28T15:28:57.773Z,2.80
2018-06-28T15:31:30.410Z,2.80
2018-06-28T15:34:00.506Z,2.77
2018-06-28T15:36:32.317Z,2.72
2018-06-28T15:39:00.713Z,2.67
2018-06-28T15:41:36.338Z,2.52
2018-06-28T15:44:06.140Z,3.35
2018-06-28T15:46:37.598Z,2.52
2018-06-28T15:49:08.582Z,2.98
2018-06-28T15:51:41.185Z,3.22
2018-06-28T15:54:10.132Z,2.75
2018-06-28T15:56:42.697Z,2.77
2018-06-28T15:59:11.562Z,2.67
2018-06-28T16:01:53.437Z,2.62
2018-06-28T16:04:23.067Z,2.80
2018-06-28T16:06:52.165Z,2.37
2018-06-28T16:09:21.628Z,2.05
2018-06-28T16:11:50.583Z,2.40
2018-06-28T16:14:19.010Z,2.33
2018-06-28T16:17:00.349Z,2.83
2018-06-28T16:19:30.922Z,2.40
2018-06-28T16:22:01.184Z,2.52
2018-06-28T16:24:30.206Z,2.30
2018-06-28T16:26:58.952Z,2.50
2018-06-28T16:29:27.445Z,2.50
2018-06-28T16:31:59.458Z,2.70
2018-06-28T16:34:27.660Z,2.40
2018-06-28T16:37:01.009Z,2.77
2018-06-28T16:39:29.585Z,2.45
2018-06-28T16:41:58.367Z,2.40
2018-06-28T16:44:27.091Z,2.60
2018-06-28T16:46:55.679Z,2.92
2018-06-28T16:49:30.263Z,2.90
2018-06-28T16:51:59.389Z,3.05
2018-06-28T16:54:28.508Z,2.75
2018-06-28T16:56:57.552Z,2.67
2018-06-28T16:59:26.296Z,3.10
2018-06-28T17:01:55.049Z,2.65
2018-06-28T17:04:23.583Z,2.95
2018-06-28T17:06:51.954Z,2.72
2018-06-28T17:09:20.389Z,2.52
2018-06-28T17:11:49.530Z,2.50
2018-06-28T17:14:30.366Z,2.37
2018-06-28T17:17:02.371Z,2.72
2018-06-28T17:21:54.110Z,2.58
2018-06-28T17:24:35.571Z,2.60
2018-06-28T17:27:04.375Z,2.37
2018-06-28T17:29:32.672Z,2.60
2018-06-28T17:32:01.385Z,2.60
2018-06-28T17:34:34.301Z,2.65
2018-06-28T17:37:06.832Z,2.50
2018-06-28T17:39:36.670Z,2.60
2018-06-28T17:42:06.205Z,2.50
2018-06-28T17:44:39.664Z,2.40
2018-06-28T17:47:10.158Z,2.70
2018-06-28T17:49:40.737Z,2.72
2018-06-28T17:52:10.660Z,2.65
2018-06-28T17:54:45.844Z,2.50
2018-06-28T17:57:15.019Z,2.40
2018-06-28T17:59:46.187Z,2.60
2018-06-28T18:02:15.169Z,2.30
2018-06-28T18:04:49.828Z,2.47
2018-06-28T18:07:19.869Z,2.62
2018-06-28T18:09:52.421Z,2.50
2018-06-28T18:12:21.249Z,2.60
2018-06-28T18:14:52.225Z,2.42
2018-06-28T18:17:20.946Z,2.40
2018-06-28T18:19:56.116Z,2.60
2018-06-28T18:22:28.092Z,2.27
2018-06-28T18:24:59.209Z,2.70
2018-06-28T18:27:27.938Z,2.40
2018-06-28T18:30:00.885Z,2.47
2018-06-28T18:32:29.490Z,2.60
2018-06-28T18:35:05.717Z,2.60
2018-06-28T18:37:34.391Z,2.45
2018-06-28T18:40:13.088Z,2.17
2018-06-28T18:42:41.558Z,2.58
2018-06-28T18:45:11.220Z,2.90
2018-06-28T18:47:40.477Z,2.80
2018-06-28T18:50:25.354Z,2.25
2018-06-28T18:52:54.777Z,2.25
2018-06-28T18:55:25.226Z,2.70
2018-06-28T18:57:56.168Z,2.50
2018-06-28T19:00:32.172Z,2.62
2018-06-28T19:05:45.559Z,2.70
2018-06-28T19:08:20.635Z,2.98
2018-06-28T19:13:29.129Z,2.60
2018-06-28T19:16:02.857Z,2.62
2018-06-28T19:18:35.193Z,2.70
2018-06-28T19:21:09.698Z,2.60
2018-06-28T19:23:43.573Z,3.22
2018-06-28T19:26:13.569Z,2.37
2018-06-28T19:28:42.720Z,3.30
2018-06-28T19:31:17.077Z,2.40
2018-06-28T19:33:47.842Z,2.77
2018-06-28T19:36:17.252Z,2.35
2018-06-28T19:38:51.184Z,2.55
2018-06-28T19:41:26.142Z,2.80
2018-06-28T19:43:58.188Z,2.70
2018-06-28T19:46:27.271Z,3.00
2018-06-28T19:48:57.324Z,2.83
2018-06-28T19:51:32.350Z,2.67
2018-06-28T19:54:02.554Z,2.67
2018-06-28T19:56:31.176Z,3.03
2018-06-28T19:59:00.677Z,3.30
2018-06-28T20:01:35.169Z,2.93
2018-06-28T20:04:09.081Z,2.93
2018-06-28T20:06:37.869Z,2.83
2018-06-28T20:09:07.520Z,3.03
2018-06-28T20:11:37.234Z,3.10
2018-06-28T20:16:50.617Z,3.13
2018-06-28T20:19:25.467Z,3.13
2018-06-28T20:21:56.583Z,2.63
2018-06-28T20:24:27.820Z,2.90
2018-06-28T20:27:06.453Z,2.73
2018-06-28T20:29:42.425Z,2.60
2018-06-28T20:32:21.160Z,3.47
2018-06-28T20:34:52.455Z,2.80
2018-06-28T20:37:23.626Z,2.90
2018-06-28T20:39:53.574Z,2.90
2018-06-28T20:42:27.928Z,2.60
2018-06-28T20:44:57.537Z,2.37
2018-06-28T20:47:30.357Z,2.80
2018-06-28T20:49:59.105Z,3.00
2018-06-28T20:52:29.296Z,2.63
2018-06-28T20:54:57.691Z,2.87
2018-06-28T20:57:27.138Z,2.50
2018-06-28T20:59:55.441Z,3.27
2018-06-28T21:02:24.316Z,2.73
2018-06-28T21:04:55.247Z,3.00
2018-06-28T21:07:24.899Z,2.73
2018-06-28T21:09:56.311Z,3.00
2018-06-28T21:12:27.620Z,2.73
2018-06-28T21:14:57.682Z,2.97
2018-06-28T21:17:26.386Z,2.50
2018-06-28T21:19:56.525Z,2.40
2018-06-28T21:22:30.060Z,2.40
2018-06-28T21:25:01.293Z,2.63
2018-06-28T21:27:37.113Z,2.50
2018-06-28T21:30:08.211Z,2.90
2018-06-28T21:32:53.277Z,2.70
2018-06-28T21:38:09.549Z,2.60
2018-06-28T21:40:45.766Z,2.60
2018-06-28T21:43:15.224Z,2.37
2018-06-28T21:45:44.613Z,2.40
2018-06-28T21:48:12.860Z,2.77
2018-06-28T21:50:42.079Z,2.47
2018-06-28T21:53:12.407Z,2.30
2018-06-28T21:55:44.671Z,2.30
2018-06-28T21:58:14.365Z,2.50
2018-06-28T22:00:47.125Z,2.50
2018-06-28T22:03:15.412Z,2.27
2018-06-28T22:05:48.569Z,2.43
2018-06-28T22:08:17.669Z,2.40
2018-06-28T22:10:55.326Z,2.30
2018-06-28T22:13:24.226Z,2.50
2018-06-28T22:15:53.162Z,2.70
2018-06-28T22:18:22.474Z,2.30
2018-06-28T22:20:57.090Z,2.60
2018-06-28T22:23:25.293Z,2.50
2018-06-28T22:25:59.048Z,2.30
2018-06-28T22:28:27.605Z,2.30
2018-06-28T22:31:01.975Z,2.27
2018-06-28T22:33:31.618Z,2.43
2018-06-28T22:38:34.456Z,2.40
2018-06-28T22:41:07.185Z,2.27
2018-06-28T22:43:37.158Z,2.80
2018-06-28T22:46:10.856Z,2.77
2018-06-28T22:48:39.610Z,2.80
2018-06-28T22:51:13.560Z,2.57
2018-06-28T22:53:42.509Z,3.10
2018-06-28T22:56:15.273Z,3.33
2018-06-28T22:58:43.829Z,3.00
2018-06-28T23:01:18.333Z,2.60
2018-06-28T23:03:47.148Z,2.00
2018-06-28T23:06:27.883Z,2.40
2018-06-28T23:08:57.277Z,2.30
2018-06-28T23:11:26.856Z,2.20
2018-06-28T23:13:55.297Z,2.20
2018-06-28T23:16:24.912Z,2.07
2018-06-28T23:18:54.274Z,2.13
2018-06-28T23:21:36.169Z,2.27
2018-06-28T23:24:05.364Z,2.00
2018-06-28T23:26:33.867Z,1.80
2018-06-28T23:29:02.837Z,2.07
2018-06-28T23:31:31.358Z,2.00
2018-06-28T23:33:59.939Z,2.30
2018-06-28T23:36:33.529Z,2.63
2018-06-28T23:39:02.045Z,2.43
2018-06-28T23:41:35.685Z,2.37
2018-06-28T23:44:04.414Z,2.80
2018-06-28T23:46:45.721Z,2.40
2018-06-28T23:49:14.541Z,2.30
2018-06-28T23:51:44.004Z,2.37
2018-06-28T23:54:12.201Z,2.63
2018-06-28T23:56:44.587Z,2.73
2018-06-28T23:59:13.205Z,2.47
